createdAt,value
2019-05-14T00:00:27.187Z,100.00
2019-05-14T00:03:17.226Z,100.00
2019-05-14T00:06:07.550Z,100.00
2019-05-14T00:08:57.898Z,100.00
2019-05-14T00:11:48.331Z,100.00
2019-05-14T00:14:40.153Z,100.00
2019-05-14T00:17:32.122Z,100.00
2019-05-14T00:20:22.705Z,100.00
2019-05-14T00:23:13.186Z,100.00
2019-05-14T00:26:03.380Z,100.00
2019-05-14T00:28:53.337Z,100.00
2019-05-14T00:31:43.442Z,100.00
2019-05-14T00:34:33.823Z,100.00
2019-05-14T00:37:23.883Z,100.00
2019-05-14T00:40:14.100Z,100.00
2019-05-14T00:43:04.220Z,100.00
2019-05-14T00:45:54.356Z,100.00
2019-05-14T00:48:44.761Z,100.00
2019-05-14T00:51:35.284Z,100.00
2019-05-14T00:54:25.474Z,100.00
2019-05-14T00:57:15.826Z,100.00
2019-05-14T01:00:06.116Z,100.00
2019-05-14T01:02:56.392Z,100.00
2019-05-14T01:05:46.392Z,100.00
2019-05-14T01:08:36.645Z,100.00
2019-05-14T01:11:26.661Z,100.00
2019-05-14T01:14:17.139Z,100.00
2019-05-14T01:17:07.607Z,100.00
2019-05-14T01:19:57.876Z,100.00
2019-05-14T01:22:47.825Z,100.00
2019-05-14T01:25:38.156Z,100.00
2019-05-14T01:28:28.451Z,100.00
2019-05-14T01:31:18.471Z,100.00
2019-05-14T01:34:11.033Z,100.00
2019-05-14T01:37:02.529Z,100.00
2019-05-14T01:39:52.713Z,100.00
2019-05-14T01:42:42.999Z,100.00
2019-05-14T01:45:33.477Z,100.00
2019-05-14T01:48:23.767Z,100.00
2019-05-14T01:51:14.227Z,100.00
2019-05-14T01:54:04.520Z,100.00
2019-05-14T01:56:54.704Z,100.00
2019-05-14T01:59:44.902Z,100.00
2019-05-14T02:02:35.218Z,100.00
2019-05-14T02:05:25.559Z,100.00
2019-05-14T02:08:15.762Z,100.00
2019-05-14T02:11:06.091Z,100.00
2019-05-14T02:13:56.235Z,100.00
2019-05-14T02:16:51.182Z,100.00
2019-05-14T02:19:42.800Z,100.00
2019-05-14T02:22:34.603Z,100.00
2019-05-14T02:25:24.744Z,100.00
2019-05-14T02:28:14.949Z,100.00
2019-05-14T02:31:05.145Z,100.00
2019-05-14T02:33:55.501Z,100.00
2019-05-14T02:36:45.698Z,100.00
2019-05-14T02:39:36.029Z,100.00
2019-05-14T02:42:28.877Z,100.00
2019-05-14T02:45:19.997Z,100.00
2019-05-14T02:48:10.055Z,100.00
2019-05-14T02:51:00.221Z,100.00
2019-05-14T02:53:50.541Z,100.00
2019-05-14T02:56:41.574Z,100.00
2019-05-14T02:59:31.785Z,100.00
2019-05-14T03:02:23.196Z,100.00
2019-05-14T03:05:13.402Z,100.00
2019-05-14T03:08:03.915Z,100.00
2019-05-14T03:10:53.947Z,100.00
2019-05-14T03:13:45.049Z,100.00
2019-05-14T03:16:40.097Z,100.00
2019-05-14T03:19:29.768Z,100.00
2019-05-14T03:22:26.560Z,100.00
2019-05-14T03:25:11.654Z,100.00
2019-05-14T03:28:01.919Z,100.00
2019-05-14T03:30:53.356Z,100.00
2019-05-14T03:33:44.978Z,100.00
2019-05-14T03:36:35.977Z,100.00
2019-05-14T03:39:29.412Z,100.00
2019-05-14T03:42:19.311Z,100.00
2019-05-14T03:45:10.864Z,100.00
2019-05-14T03:48:00.960Z,100.00
2019-05-14T03:50:51.278Z,100.00
2019-05-14T03:53:55.109Z,100.00
2019-05-14T03:56:32.976Z,100.00
2019-05-14T03:59:23.500Z,100.00
2019-05-14T04:02:13.661Z,100.00
2019-05-14T04:05:04.160Z,100.00
2019-05-14T04:07:54.218Z,100.00
2019-05-14T04:10:51.848Z,100.00
2019-05-14T04:13:40.609Z,100.00
2019-05-14T04:16:30.447Z,100.00
2019-05-14T04:19:20.753Z,100.00
2019-05-14T04:22:12.069Z,100.00
2019-05-14T04:25:02.143Z,100.00
2019-05-14T04:27:52.133Z,100.00
2019-05-14T04:30:42.389Z,100.00
2019-05-14T04:33:32.627Z,100.00
2019-05-14T04:36:22.658Z,100.00
2019-05-14T04:39:13.141Z,100.00
2019-05-14T04:42:03.250Z,100.00
2019-05-14T04:44:53.273Z,100.00
2019-05-14T04:47:43.558Z,100.00
2019-05-14T04:50:33.860Z,100.00
2019-05-14T04:53:24.012Z,100.00
2019-05-14T04:56:14.135Z,100.00
2019-05-14T04:59:04.357Z,100.00
2019-05-14T05:01:54.475Z,100.00
2019-05-14T05:04:44.964Z,100.00
2019-05-14T05:07:39.418Z,100.00
2019-05-14T05:10:29.789Z,100.00
2019-05-14T05:13:20.238Z,100.00
2019-05-14T05:16:10.687Z,100.00
2019-05-14T05:19:00.751Z,100.00
2019-05-14T05:21:51.036Z,100.00
2019-05-14T05:24:41.783Z,100.00
2019-05-14T05:27:32.003Z,100.00
2019-05-14T05:30:22.263Z,100.00
2019-05-14T05:33:12.613Z,100.00
2019-05-14T05:36:02.774Z,100.00
2019-05-14T05:38:52.833Z,100.00
2019-05-14T05:41:43.299Z,100.00
2019-05-14T05:44:33.505Z,98.90
2019-05-14T05:47:24.733Z,100.00
2019-05-14T05:50:14.893Z,100.00
2019-05-14T05:53:05.133Z,100.00
2019-05-14T05:55:55.442Z,100.00
2019-05-14T05:58:45.746Z,100.00
2019-05-14T06:01:42.843Z,100.00
2019-05-14T06:04:29.164Z,100.00
2019-05-14T06:07:19.544Z,100.00
2019-05-14T06:10:09.909Z,100.00
2019-05-14T06:13:00.170Z,100.00
2019-05-14T06:15:52.253Z,100.00
2019-05-14T06:18:43.637Z,100.00
2019-05-14T06:21:33.977Z,100.00
2019-05-14T06:24:24.463Z,100.00
2019-05-14T06:27:14.602Z,100.00
2019-05-14T06:30:05.932Z,100.00
2019-05-14T06:32:55.916Z,100.00
2019-05-14T06:35:48.395Z,100.00
2019-05-14T06:38:38.795Z,100.00
2019-05-14T06:41:29.297Z,100.00
2019-05-14T06:44:19.835Z,100.00
2019-05-14T06:47:11.091Z,100.00
2019-05-14T06:50:01.537Z,100.00
2019-05-14T06:52:51.908Z,100.00
2019-05-14T06:55:42.318Z,100.00
2019-05-14T06:58:32.715Z,100.00
2019-05-14T07:01:22.914Z,88.96
2019-05-14T07:04:13.214Z,81.68
2019-05-14T07:07:03.490Z,79.90
2019-05-14T07:09:53.707Z,83.40
2019-05-14T07:12:43.767Z,68.59
2019-05-14T07:15:33.912Z,68.38
2019-05-14T07:18:24.423Z,73.26
2019-05-14T07:21:14.423Z,73.56
2019-05-14T07:24:04.534Z,71.80
2019-05-14T07:26:55.020Z,75.01
2019-05-14T07:29:45.399Z,75.35
2019-05-14T07:32:35.705Z,76.41
2019-05-14T07:35:25.998Z,71.22
2019-05-14T07:38:16.272Z,68.19
2019-05-14T07:41:08.945Z,65.53
2019-05-14T07:43:58.709Z,61.08
2019-05-14T07:46:49.625Z,55.96
2019-05-14T07:49:40.404Z,58.55
2019-05-14T07:52:31.325Z,54.84
2019-05-14T07:55:22.161Z,55.18
2019-05-14T07:58:13.031Z,58.12
2019-05-14T08:01:03.682Z,53.62
2019-05-14T08:03:54.744Z,52.56
2019-05-14T08:06:45.492Z,52.45
2019-05-14T08:09:38.731Z,53.40
2019-05-14T08:12:29.016Z,53.96
2019-05-14T08:15:22.453Z,54.44
2019-05-14T08:18:14.482Z,52.18
2019-05-14T08:21:05.661Z,55.01
2019-05-14T08:23:59.105Z,53.70
2019-05-14T08:26:49.460Z,54.97
2019-05-14T08:29:40.302Z,52.92
2019-05-14T08:32:30.468Z,52.94
2019-05-14T08:35:20.643Z,52.20
2019-05-14T08:38:12.275Z,54.48
2019-05-14T08:41:02.659Z,57.04
2019-05-14T08:43:53.014Z,57.97
2019-05-14T08:46:45.079Z,58.02
2019-05-14T08:49:42.606Z,57.78
2019-05-14T08:52:28.793Z,56.00
2019-05-14T08:55:18.513Z,57.35
2019-05-14T08:58:13.478Z,56.87
2019-05-14T09:01:00.471Z,54.77
2019-05-14T09:03:50.737Z,56.95
2019-05-14T09:06:41.225Z,62.77
2019-05-14T09:09:32.605Z,60.66
2019-05-14T09:12:23.082Z,57.26
2019-05-14T09:15:13.470Z,59.15
2019-05-14T09:18:04.043Z,58.02
2019-05-14T09:20:54.340Z,59.40
2019-05-14T09:23:45.333Z,57.07
2019-05-14T09:26:36.219Z,56.54
2019-05-14T09:29:29.827Z,54.83
2019-05-14T09:32:19.497Z,52.86
2019-05-14T09:35:10.800Z,51.46
2019-05-14T09:38:01.487Z,49.79
2019-05-14T09:41:07.117Z,53.12
2019-05-14T09:43:44.605Z,52.38
2019-05-14T09:46:35.331Z,54.79
2019-05-14T09:49:28.263Z,55.33
2019-05-14T09:52:18.782Z,55.16
2019-05-14T09:55:09.908Z,56.50
2019-05-14T09:58:01.892Z,55.48
2019-05-14T10:00:52.677Z,55.08
2019-05-14T10:03:43.708Z,54.15
2019-05-14T10:06:34.559Z,55.27
2019-05-14T10:09:25.609Z,54.93
2019-05-14T10:12:16.625Z,51.91
2019-05-14T10:15:09.758Z,53.13
2019-05-14T10:18:00.786Z,54.79
2019-05-14T10:20:52.274Z,57.64
2019-05-14T10:23:47.665Z,60.43
2019-05-14T10:26:43.410Z,58.06
2019-05-14T10:29:35.520Z,56.83
2019-05-14T10:32:29.311Z,60.11
2019-05-14T10:35:19.174Z,58.03
2019-05-14T10:38:09.402Z,59.48
2019-05-14T10:40:59.702Z,59.88
2019-05-14T10:43:50.510Z,58.13
2019-05-14T10:46:40.957Z,57.84
2019-05-14T10:49:31.397Z,59.58
2019-05-14T10:52:21.760Z,62.70
2019-05-14T10:55:12.269Z,64.88
2019-05-14T10:58:02.184Z,68.61
2019-05-14T11:00:52.507Z,66.48
2019-05-14T11:03:42.684Z,69.03
2019-05-14T11:06:32.839Z,68.47
2019-05-14T11:09:23.070Z,66.96
2019-05-14T11:12:13.430Z,70.04
2019-05-14T11:15:03.764Z,69.59
2019-05-14T11:17:54.206Z,70.03
2019-05-14T11:20:44.337Z,69.17
2019-05-14T11:23:34.641Z,71.01
2019-05-14T11:26:25.121Z,69.43
2019-05-14T11:29:15.417Z,69.71
2019-05-14T11:32:05.689Z,70.53
2019-05-14T11:34:55.952Z,72.87
2019-05-14T11:37:48.016Z,72.78
2019-05-14T11:40:38.685Z,71.94
2019-05-14T11:43:29.065Z,71.15
2019-05-14T11:46:33.645Z,70.44
2019-05-14T11:49:11.276Z,70.98
2019-05-14T11:52:07.874Z,72.11
2019-05-14T11:54:53.252Z,71.45
2019-05-14T11:57:43.539Z,71.53
2019-05-14T12:00:33.560Z,69.34
2019-05-14T12:03:23.927Z,70.66
2019-05-14T12:06:14.219Z,71.89
2019-05-14T12:09:06.219Z,66.60
2019-05-14T12:11:58.490Z,70.57
2019-05-14T12:14:48.478Z,69.97
2019-05-14T12:17:39.612Z,67.39
2019-05-14T12:20:30.036Z,67.34
2019-05-14T12:23:20.162Z,69.37
2019-05-14T12:26:11.375Z,71.21
2019-05-14T12:29:01.622Z,69.96
2019-05-14T12:31:51.860Z,69.65
2019-05-14T12:34:42.347Z,70.72
2019-05-14T12:37:32.513Z,71.00
2019-05-14T12:40:22.767Z,71.44
2019-05-14T12:43:13.142Z,71.26
2019-05-14T12:46:03.350Z,71.43
2019-05-14T12:48:54.381Z,72.41
2019-05-14T12:51:44.484Z,74.19
2019-05-14T12:54:34.574Z,75.07
2019-05-14T12:57:24.923Z,77.20
2019-05-14T13:00:15.325Z,75.74
2019-05-14T13:03:05.819Z,75.72
2019-05-14T13:05:58.585Z,75.93
2019-05-14T13:08:49.295Z,74.40
2019-05-14T13:11:41.609Z,72.93
2019-05-14T13:14:31.962Z,74.63
2019-05-14T13:17:22.043Z,74.91
2019-05-14T13:20:14.069Z,74.48
2019-05-14T13:23:05.426Z,76.15
2019-05-14T13:25:58.413Z,75.01
2019-05-14T13:28:50.669Z,75.20
2019-05-14T13:31:38.939Z,76.13
2019-05-14T13:34:29.370Z,75.97
2019-05-14T13:37:19.523Z,76.34
2019-05-14T13:40:13.539Z,77.47
2019-05-14T13:43:01.484Z,77.87
2019-05-14T13:45:51.587Z,78.74
2019-05-14T13:48:43.292Z,78.20
2019-05-14T13:51:33.911Z,79.91
2019-05-14T13:54:24.402Z,79.20
2019-05-14T13:57:14.909Z,79.16
2019-05-14T14:00:04.960Z,80.96
2019-05-14T14:02:55.543Z,82.38
2019-05-14T14:05:45.793Z,82.62
2019-05-14T14:08:41.934Z,83.05
2019-05-14T14:11:31.355Z,83.04
2019-05-14T14:14:20.525Z,82.72
2019-05-14T14:17:11.747Z,82.09
2019-05-14T14:20:02.087Z,82.92
2019-05-14T14:22:52.100Z,82.24
2019-05-14T14:25:42.460Z,83.44
2019-05-14T14:28:32.734Z,85.02
2019-05-14T14:31:23.518Z,86.69
2019-05-14T14:34:13.930Z,85.55
2019-05-14T14:37:04.438Z,86.55
2019-05-14T14:39:54.619Z,86.03
2019-05-14T14:42:44.698Z,83.93
2019-05-14T14:45:34.879Z,84.55
2019-05-14T14:48:25.205Z,84.94
2019-05-14T14:51:15.472Z,85.19
2019-05-14T14:54:11.814Z,86.11
2019-05-14T14:56:59.224Z,87.14
2019-05-14T14:59:49.408Z,87.62
2019-05-14T15:02:41.294Z,88.79
2019-05-14T15:05:31.818Z,89.17
2019-05-14T15:08:22.119Z,89.58
2019-05-14T15:11:12.618Z,90.64
2019-05-14T15:14:03.008Z,91.16
2019-05-14T15:16:53.336Z,91.08
2019-05-14T15:19:43.644Z,91.25
2019-05-14T15:22:34.041Z,91.20
2019-05-14T15:25:24.004Z,91.39
2019-05-14T15:28:14.245Z,90.63
2019-05-14T15:31:04.471Z,90.67
2019-05-14T15:33:54.860Z,91.11
2019-05-14T15:36:45.249Z,89.98
2019-05-14T15:39:38.903Z,88.88
2019-05-14T15:42:28.470Z,89.48
2019-05-14T15:45:19.019Z,89.26
2019-05-14T15:48:09.255Z,88.50
2019-05-14T15:50:59.888Z,89.83
2019-05-14T15:54:05.632Z,88.84
2019-05-14T15:56:42.064Z,89.62
2019-05-14T15:59:32.327Z,89.27
2019-05-14T16:02:22.415Z,90.59
2019-05-14T16:05:12.849Z,91.54
2019-05-14T16:08:02.814Z,91.41
2019-05-14T16:10:53.114Z,92.19
2019-05-14T16:13:43.523Z,92.13
2019-05-14T16:16:33.940Z,93.35
2019-05-14T16:19:24.248Z,92.41
2019-05-14T16:22:14.698Z,92.55
2019-05-14T16:25:05.189Z,93.36
2019-05-14T16:27:55.112Z,92.99
2019-05-14T16:30:45.400Z,92.67
2019-05-14T16:33:35.598Z,94.03
2019-05-14T16:36:26.044Z,93.99
2019-05-14T16:39:16.298Z,94.74
2019-05-14T16:42:07.133Z,96.03
2019-05-14T16:44:57.701Z,96.50
2019-05-14T16:47:47.939Z,96.57
2019-05-14T16:50:38.171Z,97.19
2019-05-14T16:53:28.862Z,99.22
2019-05-14T16:56:19.431Z,100.00
2019-05-14T16:59:09.689Z,100.00
2019-05-14T17:01:59.673Z,100.00
2019-05-14T17:04:49.956Z,100.00
2019-05-14T17:07:40.265Z,100.00
2019-05-14T17:10:30.441Z,100.00
2019-05-14T17:13:20.791Z,100.00
2019-05-14T17:16:11.091Z,100.00
2019-05-14T17:19:01.405Z,100.00
2019-05-14T17:21:51.711Z,100.00
2019-05-14T17:24:42.039Z,100.00
2019-05-14T17:27:32.392Z,100.00
2019-05-14T17:30:22.684Z,100.00
2019-05-14T17:33:12.996Z,100.00
2019-05-14T17:36:03.341Z,100.00
2019-05-14T17:38:53.751Z,100.00
2019-05-14T17:41:44.184Z,100.00
2019-05-14T17:44:34.437Z,100.00
2019-05-14T17:47:24.792Z,100.00
2019-05-14T17:50:15.068Z,100.00
2019-05-14T17:53:05.281Z,100.00
2019-05-14T17:55:55.625Z,100.00
2019-05-14T17:58:45.912Z,100.00
2019-05-14T18:01:35.989Z,100.00
2019-05-14T18:04:28.410Z,100.00
2019-05-14T18:07:19.291Z,100.00
2019-05-14T18:10:10.999Z,100.00
2019-05-14T18:13:01.193Z,100.00
2019-05-14T18:15:51.381Z,100.00
2019-05-14T18:18:41.803Z,100.00
2019-05-14T18:21:34.195Z,100.00
2019-05-14T18:24:24.643Z,100.00
2019-05-14T18:27:14.880Z,100.00
2019-05-14T18:30:05.657Z,100.00
2019-05-14T18:32:58.439Z,100.00
2019-05-14T18:35:50.844Z,100.00
2019-05-14T18:38:40.549Z,100.00
2019-05-14T18:41:32.153Z,100.00
2019-05-14T18:44:23.205Z,100.00
2019-05-14T18:47:16.674Z,100.00
2019-05-14T18:50:08.780Z,100.00
2019-05-14T18:52:59.903Z,100.00
2019-05-14T18:55:50.244Z,100.00
2019-05-14T18:58:40.552Z,100.00
2019-05-14T19:01:30.851Z,100.00
2019-05-14T19:04:20.972Z,100.00
2019-05-14T19:07:11.150Z,100.00
2019-05-14T19:10:01.797Z,100.00
2019-05-14T19:12:52.970Z,100.00
2019-05-14T19:15:43.231Z,100.00
2019-05-14T19:18:33.513Z,100.00
2019-05-14T19:21:23.799Z,100.00
2019-05-14T19:24:14.014Z,100.00
2019-05-14T19:27:04.160Z,100.00
2019-05-14T19:29:54.415Z,100.00
2019-05-14T19:32:44.732Z,100.00
2019-05-14T19:35:34.896Z,100.00
2019-05-14T19:38:25.384Z,100.00
2019-05-14T19:41:15.724Z,100.00
2019-05-14T19:44:08.830Z,100.00
2019-05-14T19:46:59.309Z,100.00
2019-05-14T19:49:49.778Z,100.00
2019-05-14T19:52:40.075Z,100.00
2019-05-14T19:55:30.321Z,100.00
2019-05-14T19:58:20.490Z,100.00
2019-05-14T20:01:10.533Z,100.00
2019-05-14T20:04:00.828Z,100.00
2019-05-14T20:06:51.133Z,100.00
2019-05-14T20:09:41.433Z,100.00
2019-05-14T20:12:31.784Z,100.00
2019-05-14T20:15:22.255Z,100.00
2019-05-14T20:18:12.760Z,100.00
2019-05-14T20:21:03.103Z,100.00
2019-05-14T20:23:53.641Z,100.00
2019-05-14T20:26:45.597Z,100.00
2019-05-14T20:29:35.338Z,100.00
2019-05-14T20:32:25.629Z,100.00
2019-05-14T20:35:29.911Z,100.00
2019-05-14T20:38:09.065Z,100.00
2019-05-14T20:40:59.802Z,100.00
2019-05-14T20:43:49.815Z,100.00
2019-05-14T20:46:40.407Z,100.00
2019-05-14T20:49:30.640Z,100.00
2019-05-14T20:52:21.092Z,100.00
2019-05-14T20:55:11.542Z,100.00
2019-05-14T20:58:01.643Z,100.00
2019-05-14T21:00:51.568Z,100.00
2019-05-14T21:03:44.040Z,100.00
2019-05-14T21:06:33.793Z,100.00
2019-05-14T21:09:24.123Z,100.00
2019-05-14T21:12:14.431Z,100.00
2019-05-14T21:15:04.965Z,100.00
2019-05-14T21:17:55.095Z,100.00
2019-05-14T21:20:45.218Z,100.00
2019-05-14T21:23:35.411Z,100.00
2019-05-14T21:26:25.541Z,100.00
2019-05-14T21:29:15.472Z,100.00
2019-05-14T21:32:08.201Z,100.00
2019-05-14T21:34:58.606Z,100.00
2019-05-14T21:37:51.400Z,100.00
2019-05-14T21:40:40.857Z,100.00
2019-05-14T21:43:31.164Z,100.00
2019-05-14T21:46:21.364Z,100.00
2019-05-14T21:49:13.253Z,100.00
2019-05-14T21:52:03.484Z,100.00
2019-05-14T21:54:53.624Z,100.00
2019-05-14T21:57:54.280Z,100.00
2019-05-14T22:00:42.171Z,100.00
2019-05-14T22:03:32.305Z,100.00
2019-05-14T22:06:22.721Z,100.00
2019-05-14T22:09:13.123Z,100.00
2019-05-14T22:12:03.492Z,100.00
2019-05-14T22:14:54.049Z,100.00
2019-05-14T22:17:44.375Z,100.00
2019-05-14T22:20:34.833Z,100.00
2019-05-14T22:23:25.091Z,100.00
2019-05-14T22:26:15.357Z,100.00
2019-05-14T22:29:08.149Z,100.00
2019-05-14T22:31:58.692Z,100.00
2019-05-14T22:34:49.168Z,100.00
2019-05-14T22:37:39.345Z,100.00
2019-05-14T22:40:29.859Z,100.00
2019-05-14T22:43:20.087Z,100.00
2019-05-14T22:46:10.424Z,100.00
2019-05-14T22:49:00.733Z,100.00
2019-05-14T22:51:52.240Z,100.00
2019-05-14T22:54:42.687Z,100.00
2019-05-14T22:57:33.043Z,100.00
2019-05-14T23:00:23.214Z,100.00
2019-05-14T23:03:13.777Z,100.00
2019-05-14T23:06:04.059Z,100.00
2019-05-14T23:08:55.348Z,100.00
2019-05-14T23:11:47.902Z,100.00
2019-05-14T23:14:39.103Z,100.00
2019-05-14T23:17:29.328Z,100.00
2019-05-14T23:20:20.660Z,100.00
2019-05-14T23:23:10.816Z,100.00
2019-05-14T23:26:01.644Z,100.00
2019-05-14T23:28:51.818Z,100.00
2019-05-14T23:31:42.079Z,100.00
2019-05-14T23:34:32.383Z,100.00
2019-05-14T23:37:22.418Z,100.00
2019-05-14T23:40:12.558Z,100.00
2019-05-14T23:43:02.865Z,100.00
2019-05-14T23:45:53.054Z,100.00
2019-05-14T23:48:43.359Z,100.00
2019-05-14T23:51:33.791Z,100.00
2019-05-14T23:54:24.486Z,100.00
2019-05-14T23:57:14.778Z,100.00
